Terminal Aerodrome Forecast
Issued by NWS Paducah, KY

Home | Current Version | Previous Version | Graphics & Text | Print | Product List | Glossary On
Versions: 1 2 3 4 5 6 7 8 9 10 11 12 13 14 15 16 17 18 19
000
FTUS43 KPAH 270600 AAA
TAFEVV
TAF AMD
KEVV 270616Z 2706/2806 34004KT 4SM -SN BR SCT005 OVC015
      TEMPO 2706/2709 1SM -SN BR OVC005
     FM270900 33005KT 5SM BR OVC020
     FM271200 33008KT P6SM OVC020
     FM272000 31009KT P6SM SCT020=

USA.gov is the U.S. government's official web portal to all federal, state and local government web resources and services.